createdAt,value
2022-09-07T00:01:49.972Z,20.02
2022-09-07T00:05:53.854Z,19.96
2022-09-07T00:09:58.458Z,19.90
2022-09-07T00:14:01.804Z,19.88
2022-09-07T00:18:05.019Z,19.85
2022-09-07T00:22:08.628Z,19.84
2022-09-07T00:26:15.391Z,19.79
2022-09-07T00:30:18.972Z,19.75
2022-09-07T00:34:22.505Z,19.72
2022-09-07T00:38:25.861Z,19.69
2022-09-07T00:42:30.848Z,19.65
2022-09-07T00:46:34.079Z,19.60
2022-09-07T00:50:41.151Z,19.56
2022-09-07T00:54:48.627Z,19.51
2022-09-07T00:58:54.131Z,19.46
2022-09-07T01:02:59.557Z,19.44
2022-09-07T01:07:04.307Z,19.40
2022-09-07T01:11:07.744Z,19.34
2022-09-07T01:15:12.600Z,19.29
2022-09-07T01:19:34.751Z,19.25
2022-09-07T01:24:24.619Z,19.18
2022-09-07T01:28:31.121Z,19.16
2022-09-07T01:32:49.628Z,19.15
2022-09-07T01:37:01.549Z,19.15
2022-09-07T01:41:10.341Z,19.16
2022-09-07T01:45:18.966Z,19.11
2022-09-07T01:49:26.180Z,19.06
2022-09-07T01:53:35.738Z,18.97
2022-09-07T01:57:45.327Z,18.93
2022-09-07T02:01:54.877Z,18.92
2022-09-07T02:06:02.497Z,18.85
2022-09-07T02:10:12.340Z,18.81
2022-09-07T02:14:19.942Z,18.79
2022-09-07T02:18:27.952Z,18.76
2022-09-07T02:22:35.658Z,18.72
2022-09-07T02:26:42.790Z,18.64
2022-09-07T02:30:46.180Z,18.56
2022-09-07T02:34:51.388Z,18.52
2022-09-07T02:38:54.773Z,18.46
2022-09-07T02:43:01.163Z,18.43
2022-09-07T02:47:26.034Z,18.42
2022-09-07T02:51:36.206Z,18.40
2022-09-07T02:55:50.990Z,18.37
2022-09-07T03:00:07.087Z,18.33
2022-09-07T03:04:15.850Z,18.33
2022-09-07T03:08:24.904Z,18.34
2022-09-07T03:12:40.153Z,18.34
2022-09-07T03:16:43.991Z,18.33
2022-09-07T03:20:47.265Z,18.33
2022-09-07T03:24:51.840Z,18.34
2022-09-07T03:28:55.300Z,18.32
2022-09-07T03:32:58.491Z,18.28
2022-09-07T03:37:01.698Z,18.26
2022-09-07T03:41:08.140Z,18.23
2022-09-07T03:45:12.612Z,18.19
2022-09-07T03:49:16.695Z,18.16
2022-09-07T03:53:19.963Z,18.13
2022-09-07T03:57:24.550Z,18.10
2022-09-07T04:01:28.247Z,18.08
2022-09-07T04:05:33.725Z,18.06
2022-09-07T04:09:36.961Z,18.05
2022-09-07T04:13:42.011Z,18.02
2022-09-07T04:17:45.502Z,17.99
2022-09-07T04:21:49.136Z,17.98
2022-09-07T04:25:53.579Z,17.96
2022-09-07T04:29:58.176Z,17.94
2022-09-07T04:34:01.872Z,17.90
2022-09-07T04:38:05.445Z,17.87
2022-09-07T04:42:08.949Z,17.84
2022-09-07T04:46:21.898Z,17.84
2022-09-07T04:50:26.258Z,17.81
2022-09-07T04:54:29.603Z,17.81
2022-09-07T04:58:33.004Z,17.79
2022-09-07T05:02:38.215Z,17.80
2022-09-07T05:06:41.760Z,17.81
2022-09-07T05:10:52.695Z,17.82
2022-09-07T05:14:55.883Z,17.82
2022-09-07T05:19:02.309Z,17.85
2022-09-07T05:23:07.220Z,17.87
2022-09-07T05:27:10.352Z,17.90
2022-09-07T05:31:17.695Z,17.91
2022-09-07T05:35:23.002Z,17.94
2022-09-07T05:39:26.995Z,17.96
2022-09-07T05:43:31.431Z,18.01
2022-09-07T05:47:34.745Z,18.05
2022-09-07T05:51:39.605Z,18.09
2022-09-07T05:55:42.971Z,18.13
2022-09-07T05:59:46.332Z,18.18
2022-09-07T06:03:49.487Z,18.23
2022-09-07T06:07:54.247Z,18.29
2022-09-07T06:11:57.649Z,18.34
2022-09-07T06:16:01.795Z,18.42
2022-09-07T06:20:06.010Z,18.51
2022-09-07T06:24:11.515Z,18.61
2022-09-07T06:28:14.971Z,18.72
2022-09-07T06:36:41.280Z,18.88
2022-09-07T06:40:46.107Z,18.96
2022-09-07T06:44:49.500Z,19.02
2022-09-07T06:48:54.422Z,19.07
2022-09-07T06:57:22.459Z,19.22
2022-09-07T07:01:27.251Z,19.31
2022-09-07T07:05:31.808Z,19.44
2022-09-07T07:09:35.186Z,19.53
2022-09-07T07:13:41.329Z,19.69
2022-09-07T07:17:47.948Z,19.87
2022-09-07T07:26:17.896Z,20.36
2022-09-07T07:30:23.050Z,20.53
2022-09-07T07:34:26.492Z,20.67
2022-09-07T07:42:56.495Z,20.96
2022-09-07T07:47:01.385Z,21.13
2022-09-07T07:51:11.375Z,21.28
2022-09-07T07:59:39.178Z,21.53
2022-09-07T08:03:46.919Z,21.66
2022-09-07T08:07:50.057Z,21.81
2022-09-07T08:11:53.414Z,21.94
2022-09-07T08:15:59.576Z,22.09
2022-09-07T08:20:04.699Z,22.26
2022-09-07T08:24:08.149Z,22.42
2022-09-07T08:28:11.347Z,22.60
2022-09-07T08:32:14.345Z,22.68
2022-09-07T08:36:21.681Z,22.80
2022-09-07T08:40:24.822Z,22.89
2022-09-07T08:44:33.000Z,23.02
2022-09-07T08:48:36.803Z,23.16
2022-09-07T08:52:48.247Z,23.34
2022-09-07T09:01:34.456Z,23.62
2022-09-07T09:05:46.649Z,23.74
2022-09-07T09:10:09.917Z,23.85
2022-09-07T09:14:21.967Z,23.99
2022-09-07T09:18:35.202Z,24.15
2022-09-07T09:22:38.726Z,24.26
2022-09-07T09:26:46.470Z,24.35
2022-09-07T09:30:50.469Z,24.46
2022-09-07T09:35:02.723Z,24.56
2022-09-07T09:39:26.072Z,24.72
2022-09-07T09:43:41.957Z,24.83
2022-09-07T09:47:51.210Z,24.97
2022-09-07T09:56:20.468Z,25.16
2022-09-07T10:00:29.872Z,25.28
2022-09-07T10:04:35.306Z,25.34
2022-09-07T10:08:38.678Z,25.39
2022-09-07T10:12:42.548Z,25.50
2022-09-07T10:16:47.551Z,25.53
2022-09-07T10:20:50.683Z,25.66
2022-09-07T10:24:53.916Z,25.79
2022-09-07T10:29:16.044Z,25.93
2022-09-07T10:33:27.143Z,26.10
2022-09-07T10:37:39.309Z,26.22
2022-09-07T10:41:48.504Z,26.34
2022-09-07T10:46:08.390Z,26.40
2022-09-07T10:50:25.852Z,26.44
2022-09-07T10:54:38.949Z,26.42
2022-09-07T10:59:04.868Z,26.50
2022-09-07T11:03:29.935Z,26.62
2022-09-07T11:07:52.501Z,26.77
2022-09-07T11:12:02.723Z,26.91
2022-09-07T11:16:50.566Z,26.97
2022-09-07T11:20:37.583Z,27.00
2022-09-07T11:24:47.873Z,27.07
2022-09-07T11:29:33.144Z,27.11
2022-09-07T11:34:23.414Z,27.28
2022-09-07T11:38:14.823Z,27.41
2022-09-07T11:42:43.520Z,27.53
2022-09-07T11:46:51.835Z,27.65
2022-09-07T11:51:00.152Z,27.67
2022-09-07T11:55:06.882Z,27.67
2022-09-07T11:59:24.118Z,27.72
2022-09-07T12:03:45.733Z,27.76
2022-09-07T12:08:04.032Z,27.81
2022-09-07T12:12:23.358Z,27.94
2022-09-07T12:16:43.130Z,28.02
2022-09-07T12:20:48.261Z,27.99
2022-09-07T12:24:52.545Z,27.97
2022-09-07T12:29:18.750Z,28.04
2022-09-07T12:33:26.456Z,28.14
2022-09-07T12:37:41.777Z,28.25
2022-09-07T12:47:03.236Z,28.36
2022-09-07T12:51:16.093Z,28.43
2022-09-07T13:00:23.237Z,28.31
2022-09-07T13:04:47.761Z,28.29
2022-09-07T13:09:11.740Z,28.39
2022-09-07T13:14:02.654Z,28.41
2022-09-07T13:17:45.058Z,28.50
2022-09-07T13:21:50.101Z,28.56
2022-09-07T13:26:01.360Z,28.63
2022-09-07T13:30:20.875Z,28.65
2022-09-07T13:34:48.184Z,28.65
2022-09-07T13:38:52.617Z,28.65
2022-09-07T13:42:59.719Z,28.62
2022-09-07T13:47:14.968Z,28.59
2022-09-07T13:51:21.579Z,28.53
2022-09-07T13:55:32.745Z,28.49
2022-09-07T13:59:37.626Z,28.48
2022-09-07T14:03:47.725Z,28.45
2022-09-07T14:07:50.832Z,28.44
2022-09-07T14:11:55.899Z,28.36
2022-09-07T14:16:00.665Z,28.31
2022-09-07T14:20:05.976Z,28.33
2022-09-07T14:24:22.771Z,28.34
2022-09-07T14:28:33.927Z,28.37
2022-09-07T14:32:39.243Z,28.40
2022-09-07T14:36:46.216Z,28.42
2022-09-07T14:40:50.655Z,28.40
2022-09-07T14:45:20.315Z,28.32
2022-09-07T14:49:25.218Z,28.28
2022-09-07T14:53:35.583Z,28.22
2022-09-07T14:57:38.918Z,28.18
2022-09-07T15:01:42.193Z,28.15
2022-09-07T15:05:50.344Z,28.18
2022-09-07T15:09:53.547Z,28.23
2022-09-07T15:13:58.737Z,28.26
2022-09-07T15:18:08.454Z,28.29
2022-09-07T15:22:13.643Z,28.31
2022-09-07T15:30:41.929Z,28.32
2022-09-07T15:34:45.430Z,28.25
2022-09-07T15:39:05.328Z,28.17
2022-09-07T15:43:30.062Z,28.11
2022-09-07T15:52:09.940Z,28.02
2022-09-07T15:56:14.597Z,27.95
2022-09-07T16:00:18.108Z,27.92
2022-09-07T16:04:24.057Z,27.85
2022-09-07T16:08:32.732Z,27.82
2022-09-07T16:21:26.256Z,27.67
2022-09-07T16:25:29.794Z,27.64
2022-09-07T16:29:34.453Z,27.61
2022-09-07T16:33:38.102Z,27.54
2022-09-07T16:38:43.619Z,27.46
2022-09-07T16:42:04.514Z,27.38
2022-09-07T16:46:12.916Z,27.35
2022-09-07T16:50:16.283Z,27.34
2022-09-07T16:54:21.126Z,27.31
2022-09-07T16:58:39.445Z,27.28
2022-09-07T17:02:44.085Z,27.24
2022-09-07T17:06:47.362Z,27.18
2022-09-07T17:10:50.584Z,27.15
2022-09-07T17:14:53.952Z,27.09
2022-09-07T17:23:22.866Z,26.98
2022-09-07T17:27:27.261Z,26.94
2022-09-07T17:35:56.514Z,26.80
2022-09-07T17:40:00.134Z,26.76
2022-09-07T17:44:03.336Z,26.71
2022-09-07T17:48:06.416Z,26.66
2022-09-07T17:52:10.822Z,26.60
2022-09-07T17:56:15.688Z,26.54
2022-09-07T18:00:18.829Z,26.44
2022-09-07T18:04:22.303Z,26.40
2022-09-07T18:08:27.452Z,26.33
2022-09-07T18:12:32.733Z,26.24
2022-09-07T18:16:36.908Z,26.20
2022-09-07T18:20:41.308Z,26.17
2022-09-07T18:24:46.213Z,26.15
2022-09-07T18:29:13.086Z,26.09
2022-09-07T18:33:15.319Z,26.05
2022-09-07T18:37:23.696Z,25.96
2022-09-07T18:41:28.370Z,25.90
2022-09-07T18:45:31.648Z,25.82
2022-09-07T18:49:35.230Z,25.74
2022-09-07T18:53:39.272Z,25.67
2022-09-07T18:57:43.932Z,25.62
2022-09-07T19:01:47.029Z,25.55
2022-09-07T19:05:50.644Z,25.51
2022-09-07T19:09:54.143Z,25.48
2022-09-07T19:13:59.582Z,25.45
2022-09-07T19:18:04.615Z,25.43
2022-09-07T19:22:07.972Z,25.39
2022-09-07T19:26:11.731Z,25.33
2022-09-07T19:30:17.441Z,25.28
2022-09-07T19:34:20.688Z,25.19
2022-09-07T19:38:24.053Z,25.09
2022-09-07T19:42:27.359Z,25.00
2022-09-07T19:46:31.829Z,24.94
2022-09-07T19:50:34.999Z,24.89
2022-09-07T19:54:38.220Z,24.84
2022-09-07T19:58:43.966Z,24.76
2022-09-07T20:02:50.851Z,24.71
2022-09-07T20:06:53.827Z,24.66
2022-09-07T20:11:01.568Z,24.58
2022-09-07T20:15:04.959Z,24.56
2022-09-07T20:19:09.806Z,24.51
2022-09-07T20:23:12.997Z,24.46
2022-09-07T20:27:16.140Z,24.39
2022-09-07T20:31:19.474Z,24.35
2022-09-07T20:35:24.089Z,24.32
2022-09-07T20:39:27.241Z,24.27
2022-09-07T20:43:31.065Z,24.22
2022-09-07T20:47:34.203Z,24.16
2022-09-07T20:51:38.805Z,24.08
2022-09-07T20:55:41.985Z,24.03
2022-09-07T20:59:45.163Z,24.02
2022-09-07T21:03:49.649Z,23.98
2022-09-07T21:07:54.488Z,23.91
2022-09-07T21:11:57.675Z,23.87
2022-09-07T21:16:05.686Z,23.82
2022-09-07T21:20:09.603Z,23.76
2022-09-07T21:24:18.117Z,23.69
2022-09-07T21:28:22.313Z,23.63
2022-09-07T21:32:25.351Z,23.57
2022-09-07T21:36:29.271Z,23.54
2022-09-07T21:40:33.873Z,23.47
2022-09-07T21:44:36.998Z,23.38
2022-09-07T21:48:40.656Z,23.31
2022-09-07T21:52:43.881Z,23.23
2022-09-07T21:56:49.320Z,23.20
2022-09-07T22:00:53.435Z,23.14
2022-09-07T22:04:56.775Z,23.10
2022-09-07T22:09:00.399Z,23.05
2022-09-07T22:13:04.801Z,22.97
2022-09-07T22:17:08.440Z,22.91
2022-09-07T22:21:14.536Z,22.88
2022-09-07T22:25:17.676Z,22.86
2022-09-07T22:29:22.387Z,22.84
2022-09-07T22:33:25.568Z,22.80
2022-09-07T22:37:28.756Z,22.76
2022-09-07T22:41:34.036Z,22.70
2022-09-07T22:45:38.425Z,22.64
2022-09-07T22:49:41.608Z,22.59
2022-09-07T22:53:45.430Z,22.54
2022-09-07T22:57:48.585Z,22.52
2022-09-07T23:01:52.953Z,22.48
2022-09-07T23:05:56.882Z,22.46
2022-09-07T23:10:00.876Z,22.42
2022-09-07T23:14:05.826Z,22.38
2022-09-07T23:18:14.362Z,22.36
2022-09-07T23:22:18.185Z,22.31
2022-09-07T23:26:22.350Z,22.24
2022-09-07T23:30:25.518Z,22.17
2022-09-07T23:34:30.120Z,22.12
2022-09-07T23:38:33.824Z,22.08
2022-09-07T23:42:36.852Z,22.03
2022-09-07T23:46:40.077Z,21.98
2022-09-07T23:50:46.128Z,21.93
2022-09-07T23:54:49.185Z,21.88
2022-09-07T23:58:52.246Z,21.80
